Time;durP1;ratioP1;P1;durP2;ratioP2;P2;SDS_P1;SDS_P2;PMS_P1;PMS_P2;Temp;Humidity;BMP_temperature;BMP_pressure;BME280_temperature;BME280_humidity;BME280_pressure;Samples;Min_cycle;Max_cycle;Signal;HPM_P1;HPM_P2
2023/04/11 00:02:11;;;;;;;26.57;13.77;;;;;;;;;;5030127;28;20026;-73
2023/04/11 00:04:37;;;;;;;26.37;13.63;;;;;;;;;;5030648;28;20098;-74
2023/04/11 00:07:04;;;;;;;30.57;14.57;;;;;;;;;;5028106;28;20076;-73
2023/04/11 00:09:30;;;;;;;27.63;15.57;;;;;;;;;;5028454;28;20124;-75
2023/04/11 00:11:56;;;;;;;32.03;14.90;;;;;;;;;;5028851;28;20101;-73
2023/04/11 00:14:22;;;;;;;26.43;14.23;;;;;;;;;;5028505;28;20121;-73
2023/04/11 00:16:52;;;;;;;28.97;15.63;;;;;;;;;;5029696;28;20114;-74
2023/04/11 00:19:22;;;;;;;31.67;15.10;;;;;;;;;;5032440;28;20031;-74
2023/04/11 00:21:48;;;;;;;32.00;14.40;;;;;;;;;;5032190;28;20028;-74
2023/04/11 00:24:13;;;;;;;29.97;14.40;;;;;;;;;;5032979;28;20449;-73
2023/04/11 00:26:39;;;;;;;27.47;14.17;;;;;;;;;;5031986;28;20124;-74
2023/04/11 00:29:04;;;;;;;27.80;13.90;;;;;;;;;;5033061;28;20474;-73
2023/04/11 00:31:30;;;;;;;23.90;12.20;;;;;;;;;;5031440;28;20116;-74
2023/04/11 00:33:55;;;;;;;22.80;11.83;;;;;;;;;;5031573;28;20056;-74
2023/04/11 00:36:21;;;;;;;23.87;11.90;;;;;;;;;;5033246;28;20021;-73
2023/04/11 00:38:46;;;;;;;25.70;12.73;;;;;;;;;;5032603;28;20036;-73
2023/04/11 00:41:12;;;;;;;25.10;12.43;;;;;;;;;;5014888;28;20026;-72
2023/04/11 00:43:38;;;;;;;22.77;12.37;;;;;;;;;;5013631;28;20030;-73
2023/04/11 00:46:03;;;;;;;25.50;12.93;;;;;;;;;;5012925;28;20399;-73
2023/04/11 00:48:30;;;;;;;24.73;12.73;;;;;;;;;;5013203;28;20038;-73
2023/04/11 00:50:56;;;;;;;23.17;11.83;;;;;;;;;;5011132;28;20164;-74
2023/04/11 00:53:23;;;;;;;21.37;11.70;;;;;;;;;;5011061;28;20030;-73
2023/04/11 00:55:49;;;;;;;24.20;12.33;;;;;;;;;;5013066;28;20022;-74
2023/04/11 00:58:15;;;;;;;22.40;11.53;;;;;;;;;;5013451;28;20390;-73
2023/04/11 01:00:41;;;;;;;25.70;12.17;;;;;;;;;;5012343;28;20021;-74
2023/04/11 01:03:07;;;;;;;24.93;12.37;;;;;;;;;;5011937;28;20460;-74
2023/04/11 01:05:34;;;;;;;24.10;11.77;;;;;;;;;;5011399;28;20033;-75
2023/04/11 01:08:00;;;;;;;22.23;11.37;;;;;;;;;;5012518;28;20041;-73
2023/04/11 01:10:29;;;;;;;21.90;11.93;;;;;;;;;;5012969;28;20030;-73
2023/04/11 01:12:57;;;;;;;20.70;11.33;;;;;;;;;;5011146;28;20044;-73
2023/04/11 01:15:23;;;;;;;20.37;11.40;;;;;;;;;;5012604;28;20034;-72
2023/04/11 01:17:51;;;;;;;22.90;11.97;;;;;;;;;;5011290;28;20036;-73
2023/04/11 01:20:17;;;;;;;28.03;12.43;;;;;;;;;;5010794;28;20386;-73
2023/04/11 01:22:44;;;;;;;20.87;11.27;;;;;;;;;;5011882;28;20029;-73
2023/04/11 01:25:11;;;;;;;19.73;10.83;;;;;;;;;;5010834;28;20509;-74
2023/04/11 01:27:36;;;;;;;23.83;12.70;;;;;;;;;;5010640;28;20057;-74
2023/04/11 01:30:03;;;;;;;22.17;12.17;;;;;;;;;;5011279;28;20057;-73
2023/04/11 01:32:28;;;;;;;21.57;12.07;;;;;;;;;;5011894;28;20026;-75
2023/04/11 01:34:56;;;;;;;25.10;12.37;;;;;;;;;;5012272;28;20099;-74
2023/04/11 01:37:21;;;;;;;24.93;11.87;;;;;;;;;;5011595;28;20133;-75
2023/04/11 01:39:47;;;;;;;19.97;11.27;;;;;;;;;;5017457;28;20104;-74
2023/04/11 01:42:13;;;;;;;22.23;12.13;;;;;;;;;;5031885;28;20041;-73
2023/04/11 01:44:40;;;;;;;20.57;11.30;;;;;;;;;;5031528;28;20076;-73
2023/04/11 01:47:05;;;;;;;23.17;11.47;;;;;;;;;;5030037;28;20485;-74
2023/04/11 01:49:32;;;;;;;22.33;11.63;;;;;;;;;;5031444;28;20025;-73
2023/04/11 01:51:59;;;;;;;22.07;12.03;;;;;;;;;;5031033;28;20393;-74
2023/04/11 01:54:26;;;;;;;21.47;11.53;;;;;;;;;;5031668;28;20108;-75
2023/04/11 01:56:51;;;;;;;23.53;11.70;;;;;;;;;;5030319;28;20116;-74
2023/04/11 01:59:18;;;;;;;22.73;11.60;;;;;;;;;;5029484;28;20196;-74
2023/04/11 02:01:44;;;;;;;24.87;12.27;;;;;;;;;;5028684;28;20174;-72
2023/04/11 02:04:09;;;;;;;21.83;11.93;;;;;;;;;;5031961;28;20405;-75
2023/04/11 02:06:35;;;;;;;26.47;12.27;;;;;;;;;;5031494;28;20048;-73
2023/04/11 02:09:00;;;;;;;24.30;11.93;;;;;;;;;;5030920;28;20033;-73
2023/04/11 02:11:26;;;;;;;19.83;11.10;;;;;;;;;;5029206;28;20079;-74
2023/04/11 02:13:51;;;;;;;20.43;10.87;;;;;;;;;;5029506;28;20113;-74
2023/04/11 02:16:17;;;;;;;20.47;10.80;;;;;;;;;;5030872;28;20112;-73
2023/04/11 02:18:44;;;;;;;22.00;11.93;;;;;;;;;;5029252;28;20049;-74
2023/04/11 02:21:10;;;;;;;23.80;11.97;;;;;;;;;;5030104;28;20461;-74
2023/04/11 02:23:37;;;;;;;21.37;11.77;;;;;;;;;;5031010;28;20029;-73
2023/04/11 02:26:03;;;;;;;21.00;11.00;;;;;;;;;;5030539;28;20037;-74
2023/04/11 02:28:29;;;;;;;18.30;10.47;;;;;;;;;;5031092;28;20386;-73
2023/04/11 02:30:55;;;;;;;20.37;10.47;;;;;;;;;;5029540;28;20030;-74
2023/04/11 02:33:20;;;;;;;19.03;9.90;;;;;;;;;;5030165;28;20044;-74
2023/04/11 02:35:46;;;;;;;19.37;11.10;;;;;;;;;;5032033;28;20018;-73
2023/04/11 02:38:12;;;;;;;20.03;10.87;;;;;;;;;;5029803;28;20029;-74
2023/04/11 02:40:37;;;;;;;22.07;11.37;;;;;;;;;;5028414;28;20033;-74
2023/04/11 02:43:03;;;;;;;21.93;11.93;;;;;;;;;;5028832;28;20022;-74
2023/04/11 02:45:29;;;;;;;22.53;11.43;;;;;;;;;;5029941;28;20505;-73
2023/04/11 02:47:54;;;;;;;21.17;11.67;;;;;;;;;;5030391;28;20116;-73
2023/04/11 02:50:20;;;;;;;20.73;10.30;;;;;;;;;;5030316;28;20033;-73
2023/04/11 02:52:48;;;;;;;18.40;10.67;;;;;;;;;;5030180;28;20051;-73
2023/04/11 02:55:13;;;;;;;21.30;10.43;;;;;;;;;;5030118;28;20049;-72
2023/04/11 02:57:39;;;;;;;22.73;10.87;;;;;;;;;;5029072;28;20086;-73
2023/04/11 03:00:06;;;;;;;23.47;11.60;;;;;;;;;;5030243;28;20036;-74
2023/04/11 03:02:32;;;;;;;19.57;10.83;;;;;;;;;;5029732;28;20025;-74
2023/04/11 03:05:02;;;;;;;20.27;11.33;;;;;;;;;;5029820;28;20036;-74
2023/04/11 03:07:27;;;;;;;18.83;10.43;;;;;;;;;;5031038;28;20033;-74
2023/04/11 03:09:53;;;;;;;19.97;10.77;;;;;;;;;;5030261;28;20124;-73
2023/04/11 03:12:19;;;;;;;22.00;10.73;;;;;;;;;;5028306;28;20120;-74
2023/04/11 03:14:44;;;;;;;18.63;10.33;;;;;;;;;;5028513;28;20041;-73
2023/04/11 03:17:10;;;;;;;18.60;10.47;;;;;;;;;;5029407;28;20056;-73
2023/04/11 03:19:35;;;;;;;23.23;11.33;;;;;;;;;;5028100;28;20033;-74
2023/04/11 03:22:01;;;;;;;23.03;11.27;;;;;;;;;;5027750;28;20284;-75
2023/04/11 03:24:26;;;;;;;18.17;9.33;;;;;;;;;;5028684;28;20071;-73
2023/04/11 03:26:52;;;;;;;19.87;10.77;;;;;;;;;;5028053;28;20102;-73
2023/04/11 03:29:17;;;;;;;18.63;10.43;;;;;;;;;;5029626;28;20060;-75
2023/04/11 03:31:43;;;;;;;22.17;10.17;;;;;;;;;;5027912;28;20468;-73
2023/04/11 03:34:08;;;;;;;19.60;11.00;;;;;;;;;;5028798;28;20401;-74
2023/04/11 03:36:34;;;;;;;18.17;9.90;;;;;;;;;;5029429;28;20045;-73
2023/04/11 03:38:59;;;;;;;19.03;9.10;;;;;;;;;;5027653;28;20041;-73
2023/04/11 03:41:25;;;;;;;19.30;8.93;;;;;;;;;;5027542;28;20250;-72
2023/04/11 03:43:50;;;;;;;25.90;10.43;;;;;;;;;;5029186;28;20434;-73
2023/04/11 03:46:16;;;;;;;16.77;9.63;;;;;;;;;;5029573;28;20029;-74
2023/04/11 03:48:41;;;;;;;18.37;9.83;;;;;;;;;;5028238;28;20469;-73
2023/04/11 03:51:07;;;;;;;21.37;9.97;;;;;;;;;;5029259;28;20367;-74
2023/04/11 03:53:32;;;;;;;16.77;9.70;;;;;;;;;;5029229;28;20120;-73
2023/04/11 03:55:58;;;;;;;17.57;8.87;;;;;;;;;;5033508;28;20103;-74
2023/04/11 03:58:23;;;;;;;15.80;8.83;;;;;;;;;;5032355;28;20061;-74
2023/04/11 04:00:49;;;;;;;15.47;8.47;;;;;;;;;;5033257;28;20384;-74
2023/04/11 04:03:14;;;;;;;15.50;9.10;;;;;;;;;;5033862;28;20040;-74
2023/04/11 04:05:40;;;;;;;15.73;8.33;;;;;;;;;;5032594;28;20037;-74
2023/04/11 04:08:06;;;;;;;13.90;8.73;;;;;;;;;;5033595;28;20039;-73
2023/04/11 04:10:31;;;;;;;17.17;9.27;;;;;;;;;;5032784;28;20025;-74
2023/04/11 04:12:57;;;;;;;17.23;9.23;;;;;;;;;;5033420;28;20025;-73
2023/04/11 04:15:22;;;;;;;17.93;9.07;;;;;;;;;;5031777;28;20103;-72
2023/04/11 04:17:48;;;;;;;17.47;8.83;;;;;;;;;;5032426;28;20420;-72
2023/04/11 04:20:13;;;;;;;18.33;8.80;;;;;;;;;;5033307;28;20033;-74
2023/04/11 04:22:39;;;;;;;20.57;9.77;;;;;;;;;;5033249;28;20025;-74
2023/04/11 04:25:05;;;;;;;18.47;9.07;;;;;;;;;;5033193;28;20033;-74
2023/04/11 04:27:31;;;;;;;14.07;8.70;;;;;;;;;;5033057;28;20048;-74
2023/04/11 04:29:57;;;;;;;17.37;8.23;;;;;;;;;;5031599;28;20037;-73
2023/04/11 04:32:23;;;;;;;16.50;8.83;;;;;;;;;;5032690;28;20025;-73
2023/04/11 04:34:53;;;;;;;15.40;9.60;;;;;;;;;;5033131;28;20245;-75
2023/04/11 04:37:23;;;;;;;18.40;9.43;;;;;;;;;;5033623;28;20025;-75
2023/04/11 04:39:56;;;;;;;16.40;9.13;;;;;;;;;;5027334;28;20522;-75
2023/04/11 04:42:28;;;;;;;16.57;8.70;;;;;;;;;;5011370;28;20025;-74
2023/04/11 04:44:54;;;;;;;;;;;;;;;;;;5012374;28;20538;-75
2023/04/11 04:47:27;;;;;;;13.80;7.93;;;;;;;;;;5011495;28;19909;-74
2023/04/11 04:49:54;;;;;;;17.20;8.37;;;;;;;;;;5013068;28;20439;-74
2023/04/11 04:52:21;;;;;;;16.83;7.90;;;;;;;;;;5011802;28;20037;-75
2023/04/11 04:54:47;;;;;;;15.17;8.87;;;;;;;;;;5013249;28;20548;-74
2023/04/11 04:57:12;;;;;;;15.53;7.63;;;;;;;;;;5011041;28;20017;-74
2023/04/11 04:59:38;;;;;;;15.83;8.13;;;;;;;;;;5012934;28;20548;-73
2023/04/11 05:02:03;;;;;;;15.50;7.73;;;;;;;;;;5012927;28;20044;-74
2023/04/11 05:04:29;;;;;;;14.67;8.40;;;;;;;;;;5010912;28;20025;-73
2023/04/11 05:06:54;;;;;;;13.47;7.53;;;;;;;;;;5012448;28;20101;-73
2023/04/11 05:09:20;;;;;;;14.30;8.23;;;;;;;;;;5013378;28;20110;-74
2023/04/11 05:11:46;;;;;;;16.75;8.32;;;;;;;;;;5033094;28;20028;-74
2023/04/11 05:14:11;;;;;;;14.68;7.90;;;;;;;;;;5032930;28;20424;-74
2023/04/11 05:16:40;;;;;;;13.87;7.67;;;;;;;;;;5030811;28;20056;-74
2023/04/11 05:19:06;;;;;;;13.47;7.70;;;;;;;;;;5030136;28;20028;-76
2023/04/11 05:21:31;;;;;;;14.93;8.17;;;;;;;;;;5031918;28;20112;-76
2023/04/11 05:23:57;;;;;;;18.70;8.80;;;;;;;;;;5020912;28;20500;-75
2023/04/11 05:26:22;;;;;;;13.03;7.37;;;;;;;;;;5018975;28;20025;-74
2023/04/11 05:28:48;;;;;;;12.70;8.05;;;;;;;;;;5030191;28;20053;-74
2023/04/11 05:31:15;;;;;;;14.90;8.27;;;;;;;;;;5029933;28;20456;-75
2023/04/11 05:33:42;;;;;;;17.97;8.37;;;;;;;;;;5030184;28;20033;-75
2023/04/11 05:36:12;;;;;;;21.47;8.10;;;;;;;;;;5030932;28;20025;-75
2023/04/11 05:38:42;;;;;;;14.75;7.78;;;;;;;;;;5023345;28;20091;-73
2023/04/11 05:41:09;;;;;;;12.70;7.35;;;;;;;;;;4996546;28;20034;-74
2023/04/11 05:43:34;;;;;;;13.43;7.70;;;;;;;;;;5028489;28;20029;-73
2023/04/11 05:46:00;;;;;;;16.27;7.97;;;;;;;;;;5027893;28;20071;-74
2023/04/11 05:48:26;;;;;;;14.83;8.10;;;;;;;;;;5035412;28;20048;-74
2023/04/11 05:50:52;;;;;;;17.77;8.93;;;;;;;;;;5034079;28;20087;-74
2023/04/11 05:53:18;;;;;;;17.03;9.50;;;;;;;;;;5028856;28;20377;-74
2023/04/11 05:55:44;;;;;;;12.80;7.80;;;;;;;;;;5024508;28;20037;-75
2023/04/11 05:58:09;;;;;;;13.03;7.40;;;;;;;;;;5024787;28;20029;-75
2023/04/11 06:00:37;;;;;;;13.73;7.73;;;;;;;;;;5020868;28;20070;-73
2023/04/11 06:03:04;;;;;;;13.83;8.40;;;;;;;;;;5024018;28;20125;-73
2023/04/11 06:05:30;;;;;;;15.40;8.27;;;;;;;;;;5020414;28;20021;-75
2023/04/11 06:07:58;;;;;;;14.20;7.93;;;;;;;;;;5029043;28;20068;-76
2023/04/11 06:10:23;;;;;;;13.80;7.77;;;;;;;;;;5025114;28;20384;-74
2023/04/11 06:12:49;;;;;;;16.07;7.97;;;;;;;;;;5030145;28;20067;-76
2023/04/11 06:15:15;;;;;;;14.53;8.23;;;;;;;;;;5016242;28;20036;-75
2023/04/11 06:17:41;;;;;;;15.03;8.17;;;;;;;;;;5024364;28;20131;-74
2023/04/11 06:20:07;;;;;;;15.87;8.60;;;;;;;;;;5028285;28;20108;-72
2023/04/11 06:22:33;;;;;;;12.30;7.67;;;;;;;;;;5029857;28;20064;-74
2023/04/11 06:24:59;;;;;;;15.83;8.50;;;;;;;;;;5023477;28;20052;-75
2023/04/11 06:34:18;;;;;;;18.00;8.97;;;;;;;;;;5007303;28;20041;-73
2023/04/11 06:43:17;;;;;;;12.33;8.43;;;;;;;;;;5010455;28;20036;-74
2023/04/11 06:45:42;;;;;;;17.17;9.07;;;;;;;;;;5020274;28;20489;-74
2023/04/11 06:48:10;;;;;;;20.98;9.10;;;;;;;;;;5022566;28;20477;-76
2023/04/11 06:50:39;;;;;;;14.70;8.13;;;;;;;;;;5025924;28;20036;-75
2023/04/11 06:53:06;;;;;;;14.23;7.47;;;;;;;;;;5017360;28;20045;-75
2023/04/11 06:55:33;;;;;;;16.23;7.93;;;;;;;;;;5014434;28;20026;-74
2023/04/11 06:58:00;;;;;;;15.35;7.80;;;;;;;;;;5025365;28;20048;-73
2023/04/11 07:00:26;;;;;;;13.82;7.78;;;;;;;;;;5023854;28;20413;-75
2023/04/11 07:02:53;;;;;;;13.00;7.70;;;;;;;;;;5023446;28;20044;-73
2023/04/11 07:05:19;;;;;;;14.50;8.17;;;;;;;;;;5023229;28;20033;-73
2023/04/11 07:07:45;;;;;;;12.73;7.05;;;;;;;;;;5022524;28;20040;-74
2023/04/11 07:10:10;;;;;;;12.75;7.10;;;;;;;;;;5024105;28;20075;-75
2023/04/11 07:12:36;;;;;;;10.68;6.93;;;;;;;;;;5021055;28;20057;-74
2023/04/11 07:15:03;;;;;;;11.15;6.95;;;;;;;;;;5024627;28;20037;-73
2023/04/11 07:17:29;;;;;;;16.57;8.23;;;;;;;;;;5023823;28;20048;-73
2023/04/11 07:19:55;;;;;;;11.95;7.43;;;;;;;;;;5013016;28;20048;-73
2023/04/11 07:22:22;;;;;;;13.57;8.00;;;;;;;;;;5008898;28;20033;-73
2023/04/11 07:24:51;;;;;;;14.00;8.18;;;;;;;;;;5020124;28;20041;-73
2023/04/11 07:27:17;;;;;;;10.75;6.93;;;;;;;;;;5016670;28;20059;-73
2023/04/11 07:29:43;;;;;;;15.93;8.55;;;;;;;;;;5008570;28;20029;-74
2023/04/11 07:32:08;;;;;;;14.82;9.38;;;;;;;;;;5013285;28;20033;-73
2023/04/11 07:34:34;;;;;;;13.13;7.63;;;;;;;;;;5010502;28;20041;-73
2023/04/11 07:37:00;;;;;;;13.20;7.80;;;;;;;;;;5027332;28;20029;-73
2023/04/11 07:39:26;;;;;;;15.55;8.05;;;;;;;;;;5017407;28;20050;-74
2023/04/11 07:41:55;;;;;;;14.55;7.78;;;;;;;;;;5012949;28;20053;-74
2023/04/11 07:44:21;;;;;;;12.77;8.05;;;;;;;;;;5011302;28;20485;-74
2023/04/11 07:46:46;;;;;;;16.77;9.10;;;;;;;;;;5015130;28;20037;-73
2023/04/11 07:49:13;;;;;;;66.65;35.25;;;;;;;;;;5010507;28;20033;-74
2023/04/11 07:51:39;;;;;;;16.00;8.73;;;;;;;;;;5012939;28;20089;-74
2023/04/11 07:54:05;;;;;;;22.88;15.38;;;;;;;;;;5015906;28;20025;-73
2023/04/11 07:56:32;;;;;;;17.40;9.18;;;;;;;;;;5018832;28;20037;-74
2023/04/11 07:59:12;;;;;;;18.45;10.27;;;;;;;;;;5009471;28;20044;-73
2023/04/11 08:01:39;;;;;;;17.38;9.40;;;;;;;;;;5016623;28;20021;-74
2023/04/11 08:04:05;;;;;;;16.00;8.85;;;;;;;;;;5011105;28;20049;-74
2023/04/11 08:06:31;;;;;;;18.45;9.57;;;;;;;;;;5011505;28;20117;-74
2023/04/11 08:08:57;;;;;;;17.55;8.95;;;;;;;;;;5013073;28;20041;-73
2023/04/11 08:11:23;;;;;;;13.77;8.27;;;;;;;;;;5018391;28;20053;-72
2023/04/11 08:13:53;;;;;;;14.68;8.57;;;;;;;;;;5019044;28;20310;-76
2023/04/11 08:16:18;;;;;;;18.23;9.23;;;;;;;;;;4994032;28;20525;-74
2023/04/11 08:18:46;;;;;;;15.77;8.68;;;;;;;;;;5017805;28;20131;-72
2023/04/11 08:21:12;;;;;;;14.55;8.75;;;;;;;;;;5012632;28;20385;-73
2023/04/11 08:23:40;;;;;;;16.08;9.82;;;;;;;;;;5013764;28;20025;-73
2023/04/11 08:26:07;;;;;;;16.38;9.05;;;;;;;;;;5016674;28;20034;-73
2023/04/11 08:28:33;;;;;;;18.25;9.43;;;;;;;;;;5013448;28;20367;-73
2023/04/11 08:31:01;;;;;;;17.08;9.15;;;;;;;;;;5011675;28;20144;-73
2023/04/11 08:33:26;;;;;;;18.67;10.18;;;;;;;;;;5021235;28;20029;-73
2023/04/11 08:35:52;;;;;;;22.20;10.10;;;;;;;;;;5014981;28;20026;-71
2023/04/11 08:38:19;;;;;;;17.95;10.75;;;;;;;;;;5022403;28;20412;-72
2023/04/11 08:40:45;;;;;;;19.65;10.30;;;;;;;;;;5023401;28;20493;-74
2023/04/11 08:43:13;;;;;;;16.80;9.57;;;;;;;;;;5019719;28;20065;-75
2023/04/11 08:45:39;;;;;;;22.25;10.75;;;;;;;;;;5023349;28;20059;-73
2023/04/11 08:48:06;;;;;;;17.88;10.13;;;;;;;;;;5018538;28;20037;-74
2023/04/11 08:50:34;;;;;;;20.40;10.90;;;;;;;;;;5016359;28;20065;-76
2023/04/11 08:53:03;;;;;;;22.60;9.90;;;;;;;;;;5022275;28;20450;-76
2023/04/11 08:55:30;;;;;;;13.45;7.60;;;;;;;;;;5022805;28;20124;-76
2023/04/11 08:57:58;;;;;;;9.73;6.00;;;;;;;;;;5019761;28;20034;-75
2023/04/11 09:00:27;;;;;;;10.57;6.20;;;;;;;;;;5020402;28;20045;-75
2023/04/11 09:03:00;;;;;;;10.63;6.28;;;;;;;;;;5020175;28;20257;-76
2023/04/11 09:05:34;;;;;;;7.35;4.35;;;;;;;;;;5021040;28;20034;-77
2023/04/11 09:08:08;;;;;;;7.85;5.60;;;;;;;;;;5035056;28;20099;-74
2023/04/11 09:10:35;;;;;;;9.32;4.95;;;;;;;;;;5012364;28;20034;-74
2023/04/11 09:13:22;;;;;;;8.38;5.25;;;;;;;;;;5014332;28;20040;-76
2023/04/11 09:16:06;;;;;;;10.00;5.25;;;;;;;;;;5024376;28;20060;-76
2023/04/11 09:18:33;;;;;;;10.68;5.82;;;;;;;;;;5018319;28;20033;-76
2023/04/11 09:21:01;;;;;;;9.10;5.70;;;;;;;;;;5018504;28;20428;-76
2023/04/11 09:23:27;;;;;;;9.90;5.30;;;;;;;;;;5019539;28;20353;-75
2023/04/11 09:25:53;;;;;;;13.25;5.97;;;;;;;;;;5017237;28;20045;-76
2023/04/11 09:28:18;;;;;;;11.38;5.75;;;;;;;;;;5024288;28;20112;-75
2023/04/11 09:30:52;;;;;;;9.93;5.10;;;;;;;;;;5022088;28;20035;-76
2023/04/11 09:33:22;;;;;;;9.10;5.82;;;;;;;;;;5018592;28;20063;-74
2023/04/11 09:35:50;;;;;;;10.00;6.28;;;;;;;;;;5018498;28;20119;-74
2023/04/11 09:38:35;;;;;;;12.27;6.70;;;;;;;;;;5020472;28;20026;-75
2023/04/11 09:41:01;;;;;;;10.30;6.68;;;;;;;;;;5028188;28;20061;-75
2023/04/11 09:43:50;;;;;;;14.40;8.02;;;;;;;;;;5019092;28;20030;-76
2023/04/11 09:46:20;;;;;;;14.90;7.30;;;;;;;;;;5022951;28;20127;-77
2023/04/11 09:48:55;;;;;;;11.85;7.30;;;;;;;;;;5022930;28;20042;-77
2023/04/11 09:51:21;;;;;;;11.82;7.25;;;;;;;;;;5023520;28;20540;-76
2023/04/11 09:53:47;;;;;;;11.77;7.05;;;;;;;;;;5021599;28;20041;-77
2023/04/11 09:56:13;;;;;;;11.95;5.85;;;;;;;;;;5021765;28;20025;-76
2023/04/11 09:58:40;;;;;;;10.07;6.10;;;;;;;;;;5021667;28;20118;-76
2023/04/11 10:01:08;;;;;;;12.10;6.35;;;;;;;;;;5019540;28;20466;-76
2023/04/11 10:03:37;;;;;;;9.45;5.78;;;;;;;;;;5021099;28;20034;-77
2023/04/11 10:06:07;;;;;;;8.43;5.05;;;;;;;;;;5026725;28;20820;-78
2023/04/11 10:08:35;;;;;;;7.72;5.28;;;;;;;;;;5023275;28;20774;-77
2023/04/11 10:11:07;;;;;;;8.45;5.60;;;;;;;;;;5011640;28;20029;-75
2023/04/11 10:13:46;;;;;;;9.35;5.13;;;;;;;;;;5022778;28;20096;-74
2023/04/11 10:16:18;;;;;;;6.03;2.90;;;;;;;;;;5021152;28;20933;-74
2023/04/11 10:18:49;;;;;;;4.40;2.43;;;;;;;;;;5024382;28;20048;-76
2023/04/11 10:21:33;;;;;;;3.35;2.42;;;;;;;;;;5024701;28;20313;-75
2023/04/11 10:24:10;;;;;;;2.33;1.90;;;;;;;;;;5021148;28;20083;-75
2023/04/11 10:27:02;;;;;;;3.05;2.25;;;;;;;;;;5024735;28;20029;-76
2023/04/11 10:29:32;;;;;;;3.58;2.10;;;;;;;;;;5025391;28;20067;-77
2023/04/11 10:32:16;;;;;;;3.38;1.80;;;;;;;;;;5019827;28;20037;-76
2023/04/11 10:34:54;;;;;;;3.88;2.03;;;;;;;;;;5021711;28;20060;-75
2023/04/11 10:37:29;;;;;;;5.28;2.05;;;;;;;;;;5016972;28;20033;-76
2023/04/11 10:39:59;;;;;;;3.83;1.88;;;;;;;;;;5016803;28;20079;-75
2023/04/11 10:42:30;;;;;;;2.47;1.80;;;;;;;;;;5017748;28;20627;-74
2023/04/11 10:45:16;;;;;;;3.50;2.10;;;;;;;;;;5019759;28;20096;-74
2023/04/11 10:48:06;;;;;;;3.50;1.50;;;;;;;;;;5025104;28;20075;-75
2023/04/11 10:50:38;;;;;;;1.63;1.27;;;;;;;;;;5012666;28;20025;-74
2023/04/11 10:53:05;;;;;;;1.45;1.20;;;;;;;;;;5020503;28;20474;-74
2023/04/11 10:55:43;;;;;;;2.85;1.58;;;;;;;;;;5020159;28;20025;-74
2023/04/11 10:58:18;;;;;;;1.80;1.27;;;;;;;;;;5025213;28;20116;-74
2023/04/11 11:00:50;;;;;;;4.60;1.40;;;;;;;;;;5018641;28;20156;-74
2023/04/11 11:03:22;;;;;;;3.55;1.70;;;;;;;;;;4999949;28;20048;-74
2023/04/11 11:06:01;;;;;;;1.85;1.23;;;;;;;;;;5029768;28;20312;-76
2023/04/11 11:08:34;;;;;;;2.92;1.45;;;;;;;;;;5033516;28;20474;-76
2023/04/11 11:11:12;;;;;;;5.65;1.38;;;;;;;;;;5034463;28;20029;-74
2023/04/11 11:13:43;;;;;;;3.50;1.48;;;;;;;;;;5037019;28;20037;-74
2023/04/11 11:16:12;;;;;;;3.00;1.20;;;;;;;;;;5034132;28;20061;-75
2023/04/11 11:18:38;;;;;;;3.63;1.63;;;;;;;;;;5016558;28;20102;-75
2023/04/11 11:21:04;;;;;;;6.25;2.55;;;;;;;;;;5033068;28;20022;-74
2023/04/11 11:23:29;;;;;;;13.40;3.30;;;;;;;;;;5037165;28;20484;-75
2023/04/11 11:25:57;;;;;;;4.88;1.85;;;;;;;;;;5034571;28;20034;-74
2023/04/11 11:28:23;;;;;;;5.78;1.45;;;;;;;;;;5036684;28;20044;-74
2023/04/11 11:30:53;;;;;;;3.72;1.13;;;;;;;;;;5029764;28;20030;-75
2023/04/11 11:33:21;;;;;;;10.48;1.75;;;;;;;;;;5049932;28;20037;-75
2023/04/11 11:35:52;;;;;;;3.08;1.38;;;;;;;;;;5036985;28;20087;-76
2023/04/11 11:38:19;;;;;;;4.45;1.20;;;;;;;;;;5033816;28;20807;-74
2023/04/11 11:40:47;;;;;;;1.50;1.00;;;;;;;;;;5030729;28;20033;-74
2023/04/11 11:43:12;;;;;;;3.08;1.38;;;;;;;;;;5039138;28;20032;-73
2023/04/11 11:45:39;;;;;;;3.65;1.23;;;;;;;;;;5036362;28;20460;-74
2023/04/11 11:48:05;;;;;;;4.10;1.20;;;;;;;;;;5043199;28;20116;-75
2023/04/11 11:50:31;;;;;;;3.05;1.42;;;;;;;;;;5053615;28;20040;-75
2023/04/11 11:53:14;;;;;;;3.70;1.30;;;;;;;;;;5036712;28;20048;-74
2023/04/11 11:55:40;;;;;;;2.00;1.20;;;;;;;;;;5028892;28;20029;-75
2023/04/11 11:58:06;;;;;;;2.22;1.25;;;;;;;;;;5035271;28;20021;-75
2023/04/11 12:00:39;;;;;;;5.97;2.03;;;;;;;;;;5034882;28;20229;-75
2023/04/11 12:03:08;;;;;;;4.75;1.40;;;;;;;;;;5030118;28;20429;-73
2023/04/11 12:05:34;;;;;;;7.65;4.25;;;;;;;;;;5031739;28;20025;-75
2023/04/11 12:08:03;;;;;;;5.20;1.70;;;;;;;;;;5030877;28;20090;-75
2023/04/11 12:10:55;;;;;;;2.30;1.25;;;;;;;;;;5044086;28;20033;-77
2023/04/11 12:13:24;;;;;;;3.53;1.45;;;;;;;;;;5046132;28;20068;-74
2023/04/11 12:15:56;;;;;;;1.92;1.30;;;;;;;;;;5036146;28;20037;-76
2023/04/11 12:18:23;;;;;;;2.67;1.30;;;;;;;;;;5035724;28;20029;-74
2023/04/11 12:20:49;;;;;;;6.70;1.38;;;;;;;;;;5033565;28;20033;-74
2023/04/11 12:23:15;;;;;;;4.38;0.90;;;;;;;;;;5034291;28;20147;-73
2023/04/11 12:25:41;;;;;;;2.83;1.63;;;;;;;;;;5045126;28;20097;-76
2023/04/11 12:28:07;;;;;;;4.55;0.93;;;;;;;;;;5037319;28;20223;-74
2023/04/11 12:30:34;;;;;;;5.32;1.10;;;;;;;;;;5039999;28;20465;-76
2023/04/11 12:33:03;;;;;;;1.77;0.98;;;;;;;;;;5028522;28;20029;-74
2023/04/11 12:35:29;;;;;;;5.85;1.08;;;;;;;;;;5030108;28;20437;-74
2023/04/11 12:37:55;;;;;;;2.25;1.05;;;;;;;;;;5037298;28;20504;-74
2023/04/11 12:40:21;;;;;;;2.53;1.40;;;;;;;;;;5037427;28;20117;-74
2023/04/11 12:42:47;;;;;;;2.70;1.00;;;;;;;;;;5034246;28;20158;-77
2023/04/11 12:45:15;;;;;;;2.20;0.90;;;;;;;;;;5036539;28;20507;-75
2023/04/11 12:47:42;;;;;;;5.07;1.00;;;;;;;;;;5037875;28;20650;-76
2023/04/11 12:50:09;;;;;;;5.60;1.08;;;;;;;;;;5043195;28;20033;-76
2023/04/11 12:52:35;;;;;;;1.65;0.90;;;;;;;;;;5032246;28;20124;-75
2023/04/11 12:55:02;;;;;;;1.02;0.82;;;;;;;;;;5039785;28;20108;-78
2023/04/11 12:57:29;;;;;;;3.20;1.15;;;;;;;;;;5052646;28;20373;-73
2023/04/11 12:59:56;;;;;;;4.97;0.98;;;;;;;;;;5037361;28;20692;-76
2023/04/11 13:02:22;;;;;;;3.40;0.90;;;;;;;;;;5035111;28;20155;-77
2023/04/11 13:04:53;;;;;;;4.88;0.70;;;;;;;;;;5033488;28;20124;-76
2023/04/11 13:07:20;;;;;;;5.75;1.10;;;;;;;;;;5043013;28;20485;-74
2023/04/11 13:09:47;;;;;;;2.83;0.80;;;;;;;;;;5041595;28;20167;-76
2023/04/11 13:12:13;;;;;;;4.38;0.60;;;;;;;;;;5033732;28;20059;-77
2023/04/11 13:14:39;;;;;;;4.07;0.80;;;;;;;;;;5042238;28;20680;-75
2023/04/11 13:17:05;;;;;;;3.63;0.82;;;;;;;;;;5036833;28;20421;-75
2023/04/11 13:19:30;;;;;;;1.90;0.90;;;;;;;;;;5037366;28;20033;-77
2023/04/11 13:21:56;;;;;;;3.67;0.55;;;;;;;;;;5033777;28;20417;-75
2023/04/11 13:24:21;;;;;;;2.33;0.63;;;;;;;;;;5047814;28;20033;-74
2023/04/11 13:26:47;;;;;;;1.45;0.63;;;;;;;;;;5038005;28;20056;-76
2023/04/11 13:29:12;;;;;;;1.50;1.27;;;;;;;;;;5031313;28;20449;-75
2023/04/11 13:31:38;;;;;;;1.58;0.75;;;;;;;;;;5035794;28;20512;-75
2023/04/11 13:34:04;;;;;;;2.45;0.52;;;;;;;;;;5035139;28;20037;-75
2023/04/11 13:36:31;;;;;;;2.60;0.47;;;;;;;;;;5040039;28;20033;-75
2023/04/11 13:38:57;;;;;;;0.50;0.50;;;;;;;;;;5033549;28;20071;-76
2023/04/11 13:41:23;;;;;;;5.78;1.10;;;;;;;;;;5039065;28;20104;-76
2023/04/11 13:43:51;;;;;;;4.05;0.70;;;;;;;;;;5033653;28;20528;-75
2023/04/11 13:46:18;;;;;;;3.72;0.65;;;;;;;;;;5037618;28;20048;-75
2023/04/11 13:49:04;;;;;;;3.50;1.02;;;;;;;;;;5043822;28;20024;-76
2023/04/11 13:51:30;;;;;;;2.00;0.60;;;;;;;;;;5040814;28;20512;-74
2023/04/11 13:53:56;;;;;;;1.15;0.55;;;;;;;;;;5031521;28;20029;-74
2023/04/11 13:56:22;;;;;;;1.17;0.50;;;;;;;;;;5029905;28;20061;-74
2023/04/11 13:58:49;;;;;;;1.38;0.47;;;;;;;;;;5029928;28;20106;-73
2023/04/11 14:01:20;;;;;;;1.52;0.52;;;;;;;;;;5035404;28;20009;-76
2023/04/11 14:03:51;;;;;;;0.65;0.40;;;;;;;;;;5038523;28;20133;-73
2023/04/11 14:06:18;;;;;;;0.47;0.47;;;;;;;;;;5033723;28;20041;-74
2023/04/11 14:08:45;;;;;;;3.00;0.57;;;;;;;;;;5047446;28;20273;-74
2023/04/11 14:11:14;;;;;;;0.30;0.30;;;;;;;;;;5039995;28;20108;-74
2023/04/11 14:13:42;;;;;;;2.97;1.38;;;;;;;;;;5040161;28;20025;-73
2023/04/11 14:16:11;;;;;;;0.80;0.40;;;;;;;;;;5032965;28;20575;-74
2023/04/11 14:18:37;;;;;;;3.05;0.73;;;;;;;;;;5036479;28;20040;-76
2023/04/11 14:21:10;;;;;;;1.67;0.50;;;;;;;;;;5029866;28;20087;-76
2023/04/11 14:23:36;;;;;;;2.95;0.57;;;;;;;;;;5037368;28;20044;-75
2023/04/11 14:26:02;;;;;;;0.85;0.47;;;;;;;;;;5021572;28;20367;-73
2023/04/11 14:28:32;;;;;;;2.80;0.40;;;;;;;;;;5028716;28;20075;-73
2023/04/11 14:31:19;;;;;;;2.03;0.60;;;;;;;;;;5035277;28;20346;-74
2023/04/11 14:33:50;;;;;;;3.40;0.60;;;;;;;;;;5042196;28;20041;-75
2023/04/11 14:36:18;;;;;;;2.70;0.75;;;;;;;;;;5035482;28;20747;-77
2023/04/11 14:38:47;;;;;;;0.98;0.50;;;;;;;;;;5036696;28;20029;-74
2023/04/11 14:41:29;;;;;;;2.55;0.85;;;;;;;;;;5036310;28;20064;-75
2023/04/11 14:44:01;;;;;;;0.60;0.60;;;;;;;;;;5035095;28;20142;-73
2023/04/11 14:46:27;;;;;;;4.40;0.93;;;;;;;;;;5029625;28;20493;-73
2023/04/11 14:48:53;;;;;;;2.55;0.68;;;;;;;;;;5039397;28;20036;-74